WetterOnline ( http://www.wetteronline.de )

Wetter aktuell Waibstadt

Aktuelles Wetter: Waibstadt (237m)

6-stündlich | Neueste Meldungen
Ortszeit Temperatur Wetter
Do, 24.01. 7:00 -4.3° C leichter Schneefall
Do, 24.01. 1:00 -4.2° C bedeckt
Mi, 23.01. 19:00 -2.8° C bedeckt
Mi, 23.01. 13:00 -2.4° C bedeckt
Mi, 23.01. 7:00 -3.4° C bewölkt
Mi, 23.01. 1:00 -2.5° C bedeckt
Di, 22.01. 19:00 -2.4° C bedeckt
Di, 22.01. 13:00 -3.1° C bewölkt
Ortszeit Temperatur Wetter
Do, 24.01. 11:00 -3.6° C leichter Schneefall
Do, 24.01. 10:50 -3.6° C leichter Schneefall
Do, 24.01. 10:40 -3.6° C leichter Schneefall
Do, 24.01. 10:30 -3.5° C leichter Schneefall
Do, 24.01. 10:20 -3.5° C leichter Schneefall
Do, 24.01. 10:10 -3.7° C leichter Schneefall
Do, 24.01. 10:00 -3.7° C leichter Schneefall
Do, 24.01. 9:30 -3.9° C leichter Schneefall
Do, 24.01. 9:00 -4.1° C bedeckt
Do, 24.01. 8:30 -4.3° C bewölkt
Do, 24.01. 8:00 -4.3° C Schneefall
Ortszeit Relative Feuchte Sichtweite
Do, 24.01. 7:00 89% 5.0 km
Do, 24.01. 1:00 90% 6 km
Mi, 23.01. 19:00 76% 9 km
Mi, 23.01. 13:00 74% 10 km
Mi, 23.01. 7:00 78% 12 km
Mi, 23.01. 1:00 84% 7 km
Di, 22.01. 19:00 80% 10 km
Di, 22.01. 13:00 94% 4.4 km
Ortszeit Relative Feuchte Sichtweite
Do, 24.01. 11:00 83% 4.8 km
Do, 24.01. 10:50 83% -
Do, 24.01. 10:40 83% -
Do, 24.01. 10:30 85% 3.9 km
Do, 24.01. 10:20 85% -
Do, 24.01. 10:10 86% -
Do, 24.01. 10:00 86% 4.5 km
Do, 24.01. 9:30 87% 5.0 km
Do, 24.01. 9:00 86% 6 km
Do, 24.01. 8:30 87% 6 km
Do, 24.01. 8:00 88% 6 km
Ortszeit Niederschlagsmenge Niederschlagsart
Do, 24.01. 7:00 0.3 l/m2 in 12 Std. Schnee
Do, 24.01. 1:00 0.3 l/m2 in 6 Std. Schnee, Niederschlag
Mi, 23.01. 19:00 0.0 l/m2 in 12 Std. -
Mi, 23.01. 13:00 0.0 l/m2 in 6 Std. -
Mi, 23.01. 7:00 0.0 l/m2 in 12 Std. -
Mi, 23.01. 1:00 0.0 l/m2 in 6 Std. -
Di, 22.01. 19:00 0.0 l/m2 in 12 Std. -
Di, 22.01. 13:00 0.0 l/m2 in 6 Std. -
Ortszeit Niederschlagsmenge Niederschlagsart
Do, 24.01. 11:00 0.1 l/m2 in 1 Std. Schnee
Do, 24.01. 10:50 keine Meldung -
Do, 24.01. 10:40 keine Meldung -
Do, 24.01. 10:30 0.1 l/m2 in 1 Std. -
Do, 24.01. 10:20 keine Meldung -
Do, 24.01. 10:10 keine Meldung -
Do, 24.01. 10:00 0.1 l/m2 in 1 Std. Schnee
Do, 24.01. 9:30 0.1 l/m2 in 1 Std. -
Do, 24.01. 9:00 0.1 l/m2 in 1 Std. Schnee
Do, 24.01. 8:30 0.1 l/m2 in 1 Std. gefrierender Regen
Do, 24.01. 8:00 0.1 l/m2 in 1 Std. Schnee
Ortszeit Stärke Spitze Richtung
km/h Bft. km/h Grad Sektor
Do, 24.01. 7:00 0 0 7 - -
Do, 24.01. 1:00 4 1 22 40° NO
Mi, 23.01. 19:00 11 2 29 50° NO
Mi, 23.01. 13:00 18 3 29 60° NO
Mi, 23.01. 7:00 11 2 22 100° O
Mi, 23.01. 1:00 9 2 19 90° O
Di, 22.01. 19:00 13 3 19 70° O
Di, 22.01. 13:00 4 1 11 100° O
Ortszeit Stärke Spitze Richtung
km/h Bft. km/h Grad Sektor
Do, 24.01. 11:00 4 1 7 340° N
Do, 24.01. 10:50 4 1 - 340° N
Do, 24.01. 10:40 4 1 - 320° NW
Do, 24.01. 10:30 4 1 4 300° NW
Do, 24.01. 10:20 4 1 - 300° NW
Do, 24.01. 10:10 4 1 - 290° W
Do, 24.01. 10:00 2 1 4 290° W
Do, 24.01. 9:30 2 1 4 350° N
Do, 24.01. 9:00 4 1 4 280° W
Do, 24.01. 8:30 2 1 4 230° SW
Do, 24.01. 8:00 2 1 6 170° S
Ortszeit Untergrenze Bedeckung Gattung
total tief tief mittel hoch
Do, 24.01. 7:00 750 m 8/8 8/8 - - -
Do, 24.01. 1:00 1230 m 8/8 8/8 - - -
Mi, 23.01. 19:00 480 m 8/8 8/8 - - -
Mi, 23.01. 13:00 510 m 8/8 8/8 - - -
Mi, 23.01. 7:00 510 m 7/8 7/8 - - -
Mi, 23.01. 1:00 600 m 8/8 8/8 - - -
Di, 22.01. 19:00 630 m 8/8 8/8 - - -
Di, 22.01. 13:00 210 m 7/8 7/8 - - -
Ortszeit Bedeckungsgrad in Achtel und Wolkenuntergrenze
Do, 24.01. 11:00 6(990m) 7(1500m)
Do, 24.01. 10:50 6(990m) 7(1500m)
Do, 24.01. 10:40 5(990m) 7(1500m)
Do, 24.01. 10:30 4(990m) 8(1470m)
Do, 24.01. 10:20 4(990m) 8(1470m)
Do, 24.01. 10:10 6(990m) 8(1500m)
Do, 24.01. 10:00 1(690m) 6(1020m) 8(1500m)
Do, 24.01. 9:30 3(660m) 6(1020m) 8(1500m)
Do, 24.01. 9:00 7(600m) 8(720m) 8(1500m)
Do, 24.01. 8:30 7(750m) 7(1500m) 8(1500m)
Do, 24.01. 8:00 8(720m) 8(990m) 8(1500m)
Ortszeit Luftdruck NN (hPa) Tendenz (hPa in 3 Std.)
Do, 24.01. 7:00 1008 + 1,6
Do, 24.01. 1:00 1005 + 1,8
Mi, 23.01. 19:00 1001 + 1,9
Mi, 23.01. 13:00 999 - 0,5
Mi, 23.01. 7:00 1000 - 1,6
Mi, 23.01. 1:00 1003 - 1,6
Di, 22.01. 19:00 1007 - 2,0
Di, 22.01. 13:00 1012 - 2,5
Ortszeit Luftdruck NN (hPa) Tendenz (hPa in 3 Std.)
Do, 24.01. 11:00 1011 + 1,8
Do, 24.01. 10:50 1011 keine Meldung
Do, 24.01. 10:40 1011 keine Meldung
Do, 24.01. 10:30 1010 + 1,7
Do, 24.01. 10:20 1010 keine Meldung
Do, 24.01. 10:10 1010 keine Meldung
Do, 24.01. 10:00 1010 + 1,7
Do, 24.01. 9:30 1010 + 1,9
Do, 24.01. 9:00 1010 + 2,2
Do, 24.01. 8:30 1009 + 1,9
Do, 24.01. 8:00 1009 + 1,7
Ortszeit Schneehöhe (cm)
Do, 24.01. 7:00 3
Do, 24.01. 1:00 3
Mi, 23.01. 19:00 3
Mi, 23.01. 13:00 3
Mi, 23.01. 7:00 3
Mi, 23.01. 1:00 3
Di, 22.01. 19:00 3
Di, 22.01. 13:00 3
Ortszeit Schneehöhe (cm)
Do, 24.01. 11:00 3
Do, 24.01. 10:50 3
Do, 24.01. 10:40 3
Do, 24.01. 10:30 3
Do, 24.01. 10:20 3
Do, 24.01. 10:10 3
Do, 24.01. 10:00 3
Do, 24.01. 9:30 3
Do, 24.01. 9:00 3
Do, 24.01. 8:30 3
Do, 24.01. 8:00 3
Link zu dieser Seite / Seite empfehlen

Das Wetter in ...